Terminal Aerodrome Forecast
Issued by NWS

Home | Current Version | Previous Version | Text Only | Print | Product List | Glossary On
Versions: 1 2 3 4 5 6 7 8 9 10 11 12 13 14 15 16 17 18 19 20 21 22 23 24 25 26 27 28 29 30 31 32 33
000
FTUS45 KPSR 060529
TAFIWA
TAF
KIWA 060529Z 0606/0706 14007KT P6SM FEW150 BKN250
     FM061800 23010G20KT P6SM BKN200
      TEMPO 0618/0620 18010KT
     FM070200 32006KT P6SM FEW200
      AMD LTD TO CLD VIS AND WIND TIL 061300=

USA.gov is the U.S. government's official web portal to all federal, state and local government web resources and services.